Time;durP1;ratioP1;P1;durP2;ratioP2;P2;SDS_P1;SDS_P2;PMS_P1;PMS_P2;Temp;Humidity;BMP_temperature;BMP_pressure;BME280_temperature;BME280_humidity;BME280_pressure;Samples;Min_cycle;Max_cycle;Signal;HPM_P1;HPM_P2
2024/03/29 01:44:19;;;;;;;14.27;13.77;;;;;;;;;;5053290;28;20494;-70
2024/03/29 01:46:47;;;;;;;14.70;14.20;;;;;;;;;;5070472;28;20476;-69
2024/03/29 01:49:14;;;;;;;14.10;13.70;;;;;;;;;;5073870;28;20458;-69
2024/03/29 01:51:42;;;;;;;14.17;13.77;;;;;;;;;;5073773;28;20547;-69
2024/03/29 01:54:10;;;;;;;13.77;13.37;;;;;;;;;;5071252;28;20983;-69
2024/03/29 01:56:37;;;;;;;13.97;13.57;;;;;;;;;;5072551;28;20497;-70
2024/03/29 01:59:05;;;;;;;13.90;13.50;;;;;;;;;;5071155;28;21001;-71
2024/03/29 02:01:34;;;;;;;13.57;13.17;;;;;;;;;;5100484;28;20955;-70
2024/03/29 02:04:01;;;;;;;13.60;13.20;;;;;;;;;;5106256;28;20483;-69
2024/03/29 02:06:29;;;;;;;13.30;12.90;;;;;;;;;;5108967;28;20987;-71
2024/03/29 02:08:56;;;;;;;13.47;13.07;;;;;;;;;;5103116;28;20489;-70
2024/03/29 02:11:23;;;;;;;14.10;13.70;;;;;;;;;;5106659;28;20485;-70
2024/03/29 02:13:51;;;;;;;13.23;12.83;;;;;;;;;;5102401;28;20854;-70
2024/03/29 02:16:17;;;;;;;13.37;12.97;;;;;;;;;;5106943;28;20451;-69
2024/03/29 02:18:46;;;;;;;13.30;12.90;;;;;;;;;;5099974;28;20485;-71
2024/03/29 02:21:13;;;;;;;13.60;13.20;;;;;;;;;;5107525;28;20466;-71
2024/03/29 02:23:44;;;;;;;13.47;13.07;;;;;;;;;;5107772;28;20550;-69
2024/03/29 02:26:13;;;;;;;13.47;13.07;;;;;;;;;;5099758;28;20463;-71
2024/03/29 02:28:40;;;;;;;13.20;12.80;;;;;;;;;;5104179;28;20926;-69
2024/03/29 02:31:08;;;;;;;13.80;13.40;;;;;;;;;;5101773;28;20468;-70
2024/03/29 02:33:35;;;;;;;13.37;12.97;;;;;;;;;;5101722;28;20927;-69
2024/03/29 02:36:02;;;;;;;13.30;12.90;;;;;;;;;;5106552;28;20455;-68
2024/03/29 02:38:29;;;;;;;13.50;13.10;;;;;;;;;;5101311;28;20461;-68
2024/03/29 02:40:56;;;;;;;13.13;12.73;;;;;;;;;;5106748;28;20470;-69
2024/03/29 02:43:25;;;;;;;13.30;12.90;;;;;;;;;;5106252;28;21149;-69
2024/03/29 02:45:52;;;;;;;13.37;12.97;;;;;;;;;;5102760;28;20467;-70
2024/03/29 02:48:18;;;;;;;12.77;12.43;;;;;;;;;;5102239;28;20470;-68
2024/03/29 02:50:45;;;;;;;12.60;12.30;;;;;;;;;;5098452;28;21037;-71
2024/03/29 02:53:12;;;;;;;12.73;12.43;;;;;;;;;;5098311;28;20490;-70
2024/03/29 02:55:39;;;;;;;13.27;12.87;;;;;;;;;;5108134;28;20942;-70
2024/03/29 02:58:05;;;;;;;13.50;13.10;;;;;;;;;;5109669;28;20451;-70
2024/03/29 03:00:33;;;;;;;13.40;13.00;;;;;;;;;;5106339;28;20594;-69
2024/03/29 03:02:59;;;;;;;13.70;13.30;;;;;;;;;;5104296;28;20986;-70
2024/03/29 03:05:26;;;;;;;13.30;12.90;;;;;;;;;;5101435;28;20454;-69
2024/03/29 03:10:59;;;;;;;12.87;12.47;;;;;;;;;;5105385;28;20454;-70
2024/03/29 03:13:26;;;;;;;13.17;12.77;;;;;;;;;;5108240;28;20489;-69
2024/03/29 03:15:54;;;;;;;12.50;12.20;;;;;;;;;;5102362;28;20461;-69
2024/03/29 03:18:21;;;;;;;13.43;13.03;;;;;;;;;;5103697;28;20466;-70
2024/03/29 03:20:51;;;;;;;13.37;12.97;;;;;;;;;;5104808;28;20831;-70
2024/03/29 03:23:18;;;;;;;13.40;13.00;;;;;;;;;;5107719;28;20960;-71
2024/03/29 03:25:44;;;;;;;13.30;12.90;;;;;;;;;;5105720;28;20460;-68
2024/03/29 03:28:11;;;;;;;13.57;13.17;;;;;;;;;;5105529;27;20455;-69
2024/03/29 03:30:40;;;;;;;13.37;12.97;;;;;;;;;;5102729;28;20459;-70
2024/03/29 03:33:08;;;;;;;13.33;12.93;;;;;;;;;;5105105;28;20999;-69
2024/03/29 03:35:34;;;;;;;13.57;13.17;;;;;;;;;;5101791;28;20464;-70
2024/03/29 03:38:01;;;;;;;12.97;12.57;;;;;;;;;;5103921;28;20557;-70
2024/03/29 03:40:28;;;;;;;13.07;12.67;;;;;;;;;;5104388;28;20557;-70
2024/03/29 03:42:55;;;;;;;13.40;13.00;;;;;;;;;;5103934;28;20474;-70
2024/03/29 03:45:21;;;;;;;13.23;12.83;;;;;;;;;;5104371;28;20463;-70
2024/03/29 03:47:48;;;;;;;13.40;13.00;;;;;;;;;;5109579;28;20573;-68
2024/03/29 03:50:16;;;;;;;13.07;12.67;;;;;;;;;;5109536;28;20453;-71
2024/03/29 03:52:43;;;;;;;13.13;12.73;;;;;;;;;;5101201;28;20485;-69
2024/03/29 03:55:09;;;;;;;12.83;12.43;;;;;;;;;;5102464;28;20460;-69
2024/03/29 03:57:36;;;;;;;13.23;12.83;;;;;;;;;;5108100;28;20478;-70
2024/03/29 04:00:04;;;;;;;13.20;12.80;;;;;;;;;;5105635;28;20463;-70
2024/03/29 04:02:31;;;;;;;12.90;12.50;;;;;;;;;;5105976;28;20478;-69
2024/03/29 04:04:57;;;;;;;12.50;12.20;;;;;;;;;;5105431;28;20464;-70
2024/03/29 04:07:26;;;;;;;13.13;12.73;;;;;;;;;;5108984;28;20484;-69
2024/03/29 04:09:54;;;;;;;13.20;12.80;;;;;;;;;;5101646;28;20473;-69
2024/03/29 04:12:20;;;;;;;12.73;12.33;;;;;;;;;;5099432;28;20504;-69
2024/03/29 04:14:47;;;;;;;13.10;12.70;;;;;;;;;;5109296;28;20488;-71
2024/03/29 04:17:13;;;;;;;12.77;12.37;;;;;;;;;;5104767;28;20481;-69
2024/03/29 04:19:40;;;;;;;13.20;12.80;;;;;;;;;;5106150;28;20551;-70
2024/03/29 04:22:06;;;;;;;13.90;13.50;;;;;;;;;;5103400;28;20459;-71
2024/03/29 04:24:35;;;;;;;15.53;15.03;;;;;;;;;;5103105;28;20460;-70
2024/03/29 04:27:03;;;;;;;17.30;16.60;;;;;;;;;;5108787;28;20826;-71
2024/03/29 04:29:31;;;;;;;17.83;17.13;;;;;;;;;;5109844;28;20553;-70
2024/03/29 04:31:57;;;;;;;18.10;17.40;;;;;;;;;;5102518;28;20532;-71
2024/03/29 04:34:24;;;;;;;17.30;16.60;;;;;;;;;;5107230;28;20463;-72
2024/03/29 04:36:51;;;;;;;17.67;16.97;;;;;;;;;;5107997;28;20469;-69
2024/03/29 04:39:18;;;;;;;17.70;17.00;;;;;;;;;;5108555;28;20461;-69
2024/03/29 04:41:47;;;;;;;18.70;17.90;;;;;;;;;;5108455;28;20831;-70
2024/03/29 04:44:15;;;;;;;18.70;17.90;;;;;;;;;;5105289;28;20458;-70
2024/03/29 04:46:42;;;;;;;18.60;17.80;;;;;;;;;;5110024;28;20466;-69
2024/03/29 04:49:09;;;;;;;18.23;17.43;;;;;;;;;;5109156;28;20491;-69
2024/03/29 04:51:36;;;;;;;19.20;18.30;;;;;;;;;;5101283;28;21014;-69
2024/03/29 04:54:04;;;;;;;18.97;18.17;;;;;;;;;;5105082;28;20790;-70
2024/03/29 04:56:32;;;;;;;18.27;17.47;;;;;;;;;;5108377;28;20933;-71
2024/03/29 04:59:00;;;;;;;18.67;17.87;;;;;;;;;;5105376;28;20473;-72
2024/03/29 05:01:27;;;;;;;19.20;18.30;;;;;;;;;;5100931;28;20952;-71
2024/03/29 05:03:54;;;;;;;19.20;18.40;;;;;;;;;;5106183;27;20469;-70
2024/03/29 05:06:21;;;;;;;19.40;18.50;;;;;;;;;;5103703;28;20893;-69
2024/03/29 05:08:49;;;;;;;19.40;18.50;;;;;;;;;;5104217;28;20479;-70
2024/03/29 05:11:16;;;;;;;20.67;19.57;;;;;;;;;;5108324;28;20961;-69
2024/03/29 05:13:43;;;;;;;22.00;20.80;;;;;;;;;;5118166;27;20484;-70
2024/03/29 05:16:11;;;;;;;21.63;20.43;;;;;;;;;;5104539;28;20844;-68
2024/03/29 05:18:38;;;;;;;22.47;21.07;;;;;;;;;;5102280;28;20825;-70
2024/03/29 05:21:06;;;;;;;23.50;22.00;;;;;;;;;;5110607;28;20781;-70
2024/03/29 05:23:33;;;;;;;23.10;21.60;;;;;;;;;;5101729;28;20982;-70
2024/03/29 05:26:00;;;;;;;22.73;21.33;;;;;;;;;;5111153;27;20464;-69
2024/03/29 05:28:27;;;;;;;23.23;21.83;;;;;;;;;;5104450;28;20466;-70
2024/03/29 05:30:55;;;;;;;22.23;20.93;;;;;;;;;;5105552;28;20458;-70
2024/03/29 05:33:23;;;;;;;22.43;21.03;;;;;;;;;;5107896;28;20498;-69
2024/03/29 05:35:51;;;;;;;21.90;20.60;;;;;;;;;;5107532;27;20828;-71
2024/03/29 05:38:18;;;;;;;22.20;20.90;;;;;;;;;;5109799;28;20458;-70
2024/03/29 05:40:46;;;;;;;22.13;20.83;;;;;;;;;;5110370;28;20455;-70
2024/03/29 05:43:13;;;;;;;21.47;20.17;;;;;;;;;;5103923;28;20471;-69
2024/03/29 05:45:41;;;;;;;22.07;20.77;;;;;;;;;;5105805;28;20501;-69
2024/03/29 05:48:08;;;;;;;22.40;21.00;;;;;;;;;;5102996;28;20464;-68
2024/03/29 05:50:37;;;;;;;22.00;20.60;;;;;;;;;;5105409;28;20461;-70
2024/03/29 05:53:05;;;;;;;20.73;19.43;;;;;;;;;;5107291;27;20962;-69
2024/03/29 05:55:32;;;;;;;22.60;21.10;;;;;;;;;;5100722;28;20791;-69
2024/03/29 05:57:59;;;;;;;22.23;20.80;;;;;;;;;;5102367;28;20707;-69
2024/03/29 06:00:26;;;;;;;22.33;20.83;;;;;;;;;;5108901;27;20467;-69
2024/03/29 06:02:54;;;;;;;21.67;20.27;;;;;;;;;;5110729;27;20813;-68
2024/03/29 06:05:21;;;;;;;21.80;20.40;;;;;;;;;;5106839;27;20470;-69
2024/03/29 06:07:50;;;;;;;21.80;20.40;;;;;;;;;;5102344;28;21037;-70
2024/03/29 06:10:17;;;;;;;21.00;19.70;;;;;;;;;;5108325;28;20472;-69
2024/03/29 06:12:44;;;;;;;21.03;19.73;;;;;;;;;;5103309;27;20838;-69
2024/03/29 06:17:57;;;;;;;19.93;18.73;;;;;;;;;;5109192;28;20455;-68
2024/03/29 06:20:24;;;;;;;20.33;19.03;;;;;;;;;;5102874;28;20558;-70
2024/03/29 06:22:53;;;;;;;20.07;18.87;;;;;;;;;;5106579;28;20469;-70
2024/03/29 06:25:20;;;;;;;19.97;18.77;;;;;;;;;;5104611;28;20459;-70
2024/03/29 06:27:48;;;;;;;19.40;18.30;;;;;;;;;;5105634;28;20474;-70
2024/03/29 06:30:16;;;;;;;19.43;18.33;;;;;;;;;;5109210;28;20462;-71
2024/03/29 06:32:44;;;;;;;19.50;18.40;;;;;;;;;;5107204;28;20601;-70
2024/03/29 06:35:12;;;;;;;19.10;18.00;;;;;;;;;;5103731;28;20524;-70
2024/03/29 06:37:39;;;;;;;18.70;17.70;;;;;;;;;;5099457;28;20470;-70
2024/03/29 06:40:08;;;;;;;18.53;17.53;;;;;;;;;;5098855;28;21361;-69
2024/03/29 06:42:36;;;;;;;18.83;17.83;;;;;;;;;;5101581;28;20459;-71
2024/03/29 06:45:05;;;;;;;18.63;17.63;;;;;;;;;;5103983;28;20931;-72
2024/03/29 06:47:32;;;;;;;18.33;17.33;;;;;;;;;;5098359;28;20465;-70
2024/03/29 06:49:59;;;;;;;19.00;18.00;;;;;;;;;;5106165;28;20459;-70
2024/03/29 06:52:26;;;;;;;18.07;17.17;;;;;;;;;;5099683;28;20476;-69
2024/03/29 06:54:54;;;;;;;18.63;17.63;;;;;;;;;;5106357;28;20826;-71
2024/03/29 06:57:25;;;;;;;18.43;17.53;;;;;;;;;;5098734;28;20555;-70
2024/03/29 06:59:53;;;;;;;17.83;16.93;;;;;;;;;;5107354;28;20547;-71
2024/03/29 07:02:21;;;;;;;17.53;16.73;;;;;;;;;;5101250;28;21001;-69
2024/03/29 07:04:48;;;;;;;17.43;16.63;;;;;;;;;;5102372;27;20919;-69
2024/03/29 07:07:15;;;;;;;17.13;16.33;;;;;;;;;;5096581;28;20477;-71
2024/03/29 07:09:42;;;;;;;16.87;16.07;;;;;;;;;;5097831;28;20938;-68
2024/03/29 07:12:10;;;;;;;16.50;15.80;;;;;;;;;;5099060;28;20588;-70
2024/03/29 07:14:39;;;;;;;15.00;14.40;;;;;;;;;;5099005;28;20468;-69
2024/03/29 07:17:06;;;;;;;15.27;14.67;;;;;;;;;;5100488;28;20844;-71
2024/03/29 07:19:33;;;;;;;14.40;13.90;;;;;;;;;;5100875;28;20563;-70
2024/03/29 07:22:00;;;;;;;14.80;14.20;;;;;;;;;;5096679;28;20689;-70
2024/03/29 07:24:28;;;;;;;14.40;13.90;;;;;;;;;;5102025;28;20913;-69
2024/03/29 07:26:55;;;;;;;13.83;13.33;;;;;;;;;;5099410;28;20547;-69
2024/03/29 07:29:22;;;;;;;13.47;13.00;;;;;;;;;;5096283;28;20462;-69
2024/03/29 07:31:51;;;;;;;13.33;12.93;;;;;;;;;;5099249;28;20481;-70
2024/03/29 07:34:18;;;;;;;13.50;13.00;;;;;;;;;;5092313;28;20509;-67
2024/03/29 07:36:45;;;;;;;13.53;13.03;;;;;;;;;;5097295;28;20823;-68
2024/03/29 07:39:12;;;;;;;13.43;12.97;;;;;;;;;;5095045;28;20791;-69
2024/03/29 07:41:39;;;;;;;13.37;12.93;;;;;;;;;;5106513;27;20460;-67
2024/03/29 07:44:08;;;;;;;13.27;12.87;;;;;;;;;;5101251;28;20465;-69
2024/03/29 07:46:36;;;;;;;15.63;15.03;;;;;;;;;;5107461;28;20489;-67
2024/03/29 07:49:05;;;;;;;16.60;15.87;;;;;;;;;;5101776;28;20474;-67
2024/03/29 07:51:32;;;;;;;16.70;15.90;;;;;;;;;;5103103;28;20963;-68
2024/03/29 07:53:59;;;;;;;16.70;15.90;;;;;;;;;;5103511;28;20915;-67
2024/03/29 07:56:26;;;;;;;16.50;15.80;;;;;;;;;;5101045;28;20450;-70
2024/03/29 07:58:54;;;;;;;17.03;16.23;;;;;;;;;;5099667;28;20837;-70
2024/03/29 08:01:22;;;;;;;17.63;16.73;;;;;;;;;;5104042;28;20471;-70
2024/03/29 08:03:53;;;;;;;16.97;16.17;;;;;;;;;;5098357;28;20462;-69
2024/03/29 08:06:23;;;;;;;17.07;16.27;;;;;;;;;;5098672;28;20556;-69
2024/03/29 08:08:50;;;;;;;16.93;16.13;;;;;;;;;;5091518;28;20573;-69
2024/03/29 08:11:17;;;;;;;16.83;16.03;;;;;;;;;;5097070;28;20468;-70
2024/03/29 08:13:44;;;;;;;16.70;15.90;;;;;;;;;;5108125;28;20504;-71
2024/03/29 08:16:11;;;;;;;17.47;16.67;;;;;;;;;;5102053;28;20967;-69
2024/03/29 08:18:38;;;;;;;17.53;16.73;;;;;;;;;;5106876;28;20462;-70
2024/03/29 08:21:11;;;;;;;17.37;16.57;;;;;;;;;;5099613;28;20961;-70
2024/03/29 08:23:39;;;;;;;17.27;16.47;;;;;;;;;;5106152;28;20466;-69
2024/03/29 08:26:06;;;;;;;16.77;15.97;;;;;;;;;;5106923;28;20454;-70
2024/03/29 08:28:37;;;;;;;16.93;16.13;;;;;;;;;;5095895;28;20469;-71
2024/03/29 08:31:05;;;;;;;17.80;16.90;;;;;;;;;;5101327;28;20466;-70
2024/03/29 08:33:33;;;;;;;17.60;16.70;;;;;;;;;;5104269;28;20513;-69
2024/03/29 08:36:00;;;;;;;18.10;17.10;;;;;;;;;;5104079;28;20465;-70
2024/03/29 08:38:27;;;;;;;18.40;17.40;;;;;;;;;;5098024;28;20600;-71
2024/03/29 08:40:56;;;;;;;18.40;17.40;;;;;;;;;;5106177;28;20455;-70
2024/03/29 08:43:23;;;;;;;18.40;17.40;;;;;;;;;;5101544;28;20453;-69
2024/03/29 08:45:50;;;;;;;17.97;17.07;;;;;;;;;;5105569;28;20472;-71
2024/03/29 08:48:18;;;;;;;18.10;17.20;;;;;;;;;;5100442;28;20474;-69
2024/03/29 08:50:46;;;;;;;17.87;16.97;;;;;;;;;;5100153;28;20461;-70
2024/03/29 08:53:14;;;;;;;17.07;16.27;;;;;;;;;;5107216;28;20970;-70
2024/03/29 08:55:41;;;;;;;16.83;16.03;;;;;;;;;;5103822;28;20866;-69
2024/03/29 08:58:11;;;;;;;16.30;15.50;;;;;;;;;;5093715;28;20467;-71
2024/03/29 09:00:38;;;;;;;15.50;14.80;;;;;;;;;;5096026;28;20467;-69
2024/03/29 09:03:05;;;;;;;14.90;14.30;;;;;;;;;;5097547;28;20555;-70
2024/03/29 09:05:32;;;;;;;14.50;13.90;;;;;;;;;;5102039;28;20466;-71
2024/03/29 09:08:00;;;;;;;14.70;14.10;;;;;;;;;;5108420;28;20499;-72
2024/03/29 09:10:27;;;;;;;14.93;14.33;;;;;;;;;;5108474;28;20554;-70
2024/03/29 09:12:55;;;;;;;14.60;14.10;;;;;;;;;;5105436;28;20486;-70
2024/03/29 09:15:23;;;;;;;14.63;14.13;;;;;;;;;;5107563;28;20475;-70
2024/03/29 09:17:54;;;;;;;14.40;13.90;;;;;;;;;;5103254;27;20869;-72
2024/03/29 09:20:21;;;;;;;14.60;14.10;;;;;;;;;;5104252;28;21194;-70
2024/03/29 09:22:51;;;;;;;14.07;13.57;;;;;;;;;;5105265;27;20796;-71
2024/03/29 09:25:18;;;;;;;14.00;13.50;;;;;;;;;;5108782;28;20478;-71
2024/03/29 09:27:48;;;;;;;13.40;13.00;;;;;;;;;;5110164;28;20994;-69
2024/03/29 09:30:16;;;;;;;12.90;12.50;;;;;;;;;;5109777;27;20555;-70
2024/03/29 09:32:44;;;;;;;13.50;13.10;;;;;;;;;;5101173;28;20627;-70
2024/03/29 09:35:11;;;;;;;12.40;12.10;;;;;;;;;;5106720;27;20500;-69
2024/03/29 09:37:39;;;;;;;12.77;12.37;;;;;;;;;;5099343;28;20461;-70
2024/03/29 09:40:10;;;;;;;12.30;12.00;;;;;;;;;;5108076;27;20502;-72
2024/03/29 09:42:39;;;;;;;12.30;12.00;;;;;;;;;;5102328;28;20474;-70
2024/03/29 09:45:07;;;;;;;12.53;12.20;;;;;;;;;;5109779;28;20446;-72
2024/03/29 09:47:35;;;;;;;12.70;12.33;;;;;;;;;;5108979;28;20451;-72
2024/03/29 09:50:05;;;;;;;12.80;12.40;;;;;;;;;;5100521;28;20923;-72
2024/03/29 09:52:33;;;;;;;12.80;12.40;;;;;;;;;;5100030;28;21115;-70
2024/03/29 09:55:01;;;;;;;13.87;13.47;;;;;;;;;;5105485;28;20967;-71
2024/03/29 09:57:30;;;;;;;13.37;12.97;;;;;;;;;;5106363;28;20477;-72
2024/03/29 09:59:57;;;;;;;13.93;13.53;;;;;;;;;;5106898;28;20887;-73
2024/03/29 10:02:27;;;;;;;13.63;13.23;;;;;;;;;;5097199;28;20468;-71
2024/03/29 10:04:58;;;;;;;13.90;13.50;;;;;;;;;;5106072;27;20500;-71
2024/03/29 10:07:29;;;;;;;14.17;13.67;;;;;;;;;;5107551;27;20489;-71
2024/03/29 10:09:58;;;;;;;14.50;14.00;;;;;;;;;;5102368;28;20466;-71
2024/03/29 10:12:26;;;;;;;13.87;13.47;;;;;;;;;;5108595;28;20481;-73
2024/03/29 10:14:55;;;;;;;13.80;13.40;;;;;;;;;;5103698;27;21009;-73
2024/03/29 10:17:22;;;;;;;14.00;13.60;;;;;;;;;;5101678;28;20857;-71
2024/03/29 10:19:58;;;;;;;13.60;13.20;;;;;;;;;;5103101;28;20454;-71
2024/03/29 10:22:27;;;;;;;13.93;13.53;;;;;;;;;;5102411;28;20461;-72
2024/03/29 10:24:58;;;;;;;14.03;13.63;;;;;;;;;;5100747;28;20488;-70
2024/03/29 10:27:26;;;;;;;13.80;13.40;;;;;;;;;;5108575;28;20450;-72
2024/03/29 10:29:54;;;;;;;13.83;13.43;;;;;;;;;;5109063;28;20453;-71
2024/03/29 10:32:21;;;;;;;14.00;13.60;;;;;;;;;;5102974;28;20739;-71
2024/03/29 10:34:50;;;;;;;14.07;13.67;;;;;;;;;;5102034;28;21036;-73
2024/03/29 10:37:23;;;;;;;13.40;13.00;;;;;;;;;;5100866;28;20464;-73
2024/03/29 10:39:56;;;;;;;14.10;13.63;;;;;;;;;;5108193;28;21165;-71
2024/03/29 10:42:26;;;;;;;13.50;13.10;;;;;;;;;;5108672;28;20466;-71
2024/03/29 10:44:59;;;;;;;14.40;13.90;;;;;;;;;;5104414;28;20557;-72
2024/03/29 10:47:27;;;;;;;14.30;13.80;;;;;;;;;;5103248;28;20546;-71
2024/03/29 10:49:57;;;;;;;14.37;13.87;;;;;;;;;;5107372;28;20455;-70
2024/03/29 10:52:26;;;;;;;13.60;13.20;;;;;;;;;;5102311;28;20559;-69
2024/03/29 10:54:55;;;;;;;14.33;13.83;;;;;;;;;;5107370;28;20492;-70
2024/03/29 10:57:25;;;;;;;14.17;13.67;;;;;;;;;;5108350;28;20494;-71
2024/03/29 10:59:56;;;;;;;14.20;13.70;;;;;;;;;;5100026;28;20466;-71
2024/03/29 11:02:33;;;;;;;13.83;13.43;;;;;;;;;;5101802;28;20463;-69
2024/03/29 11:05:02;;;;;;;13.60;13.20;;;;;;;;;;5108329;28;20446;-71
2024/03/29 11:07:29;;;;;;;13.43;13.03;;;;;;;;;;5099840;28;20484;-71
2024/03/29 11:10:00;;;;;;;15.10;14.60;;;;;;;;;;5103230;28;20465;-72
2024/03/29 11:12:31;;;;;;;14.50;14.00;;;;;;;;;;5104624;28;20494;-73
2024/03/29 11:15:01;;;;;;;14.57;14.07;;;;;;;;;;5107985;28;20621;-71
2024/03/29 11:17:30;;;;;;;13.83;13.43;;;;;;;;;;5105507;28;20466;-70
2024/03/29 11:19:57;;;;;;;14.27;13.87;;;;;;;;;;5099021;28;20939;-70
2024/03/29 11:22:26;;;;;;;13.93;13.53;;;;;;;;;;5104157;28;20563;-71
2024/03/29 11:24:53;;;;;;;13.50;13.10;;;;;;;;;;5107784;28;20974;-71
2024/03/29 11:27:24;;;;;;;13.57;13.17;;;;;;;;;;5098421;28;20472;-73
2024/03/29 11:29:51;;;;;;;13.53;13.13;;;;;;;;;;5108036;28;20464;-71
2024/03/29 11:32:33;;;;;;;13.10;12.70;;;;;;;;;;5103918;28;20531;-72
2024/03/29 11:35:01;;;;;;;13.27;12.87;;;;;;;;;;5106451;28;20518;-71
2024/03/29 11:37:31;;;;;;;13.70;13.30;;;;;;;;;;5101767;28;20483;-70
2024/03/29 11:40:02;;;;;;;13.53;13.13;;;;;;;;;;5098504;28;20476;-70
2024/03/29 11:42:45;;;;;;;13.77;13.37;;;;;;;;;;5103992;28;20812;-72
2024/03/29 11:45:13;;;;;;;14.27;13.87;;;;;;;;;;5107839;28;20455;-70
2024/03/29 11:47:41;;;;;;;14.10;13.70;;;;;;;;;;5107814;28;20944;-70
2024/03/29 11:50:09;;;;;;;13.97;13.57;;;;;;;;;;5106122;28;20451;-71
2024/03/29 11:52:38;;;;;;;13.93;13.53;;;;;;;;;;5097765;28;20796;-71
2024/03/29 11:55:08;;;;;;;14.10;13.70;;;;;;;;;;5105187;28;20831;-70
2024/03/29 11:57:40;;;;;;;14.13;13.73;;;;;;;;;;5099629;28;20466;-71
2024/03/29 12:00:11;;;;;;;14.40;14.00;;;;;;;;;;5107950;28;20651;-73
2024/03/29 12:02:39;;;;;;;14.37;13.97;;;;;;;;;;5107710;28;20626;-71
2024/03/29 12:07:56;;;;;;;14.17;13.77;;;;;;;;;;5082501;28;20479;-70
2024/03/29 12:10:23;;;;;;;13.90;13.50;;;;;;;;;;5107791;28;20464;-72
2024/03/29 12:12:50;;;;;;;14.13;13.73;;;;;;;;;;5107075;28;20515;-69
2024/03/29 12:15:20;;;;;;;14.67;14.17;;;;;;;;;;5107990;28;20483;-70
2024/03/29 12:17:54;;;;;;;14.40;14.00;;;;;;;;;;5101040;28;20468;-72
2024/03/29 12:20:22;;;;;;;14.63;14.20;;;;;;;;;;5101140;28;20686;-72
2024/03/29 12:22:50;;;;;;;14.00;13.60;;;;;;;;;;5102564;28;20487;-73
2024/03/29 12:25:17;;;;;;;14.80;14.30;;;;;;;;;;5103849;28;20462;-71
2024/03/29 12:27:45;;;;;;;14.40;14.00;;;;;;;;;;5105342;28;20469;-70
2024/03/29 12:30:13;;;;;;;14.00;13.60;;;;;;;;;;5107793;28;20471;-70
2024/03/29 12:32:43;;;;;;;14.20;13.80;;;;;;;;;;5107942;28;20641;-71
2024/03/29 12:35:13;;;;;;;13.80;13.40;;;;;;;;;;5099465;28;20486;-71
2024/03/29 12:37:51;;;;;;;14.00;13.60;;;;;;;;;;5106952;28;20831;-71
2024/03/29 12:40:22;;;;;;;13.90;13.50;;;;;;;;;;5098390;28;20474;-68
2024/03/29 12:42:49;;;;;;;14.47;14.07;;;;;;;;;;5105232;28;20459;-72
2024/03/29 12:45:17;;;;;;;14.43;14.03;;;;;;;;;;5106758;28;20466;-70
2024/03/29 12:47:47;;;;;;;14.60;14.10;;;;;;;;;;5100192;28;20460;-71
2024/03/29 12:50:14;;;;;;;14.30;13.90;;;;;;;;;;5107683;28;20865;-71
2024/03/29 12:52:44;;;;;;;14.10;13.70;;;;;;;;;;5106533;28;20467;-71
2024/03/29 12:55:18;;;;;;;13.27;12.87;;;;;;;;;;5108822;28;20524;-70
2024/03/29 12:57:48;;;;;;;14.40;14.00;;;;;;;;;;5103030;28;20467;-68
2024/03/29 13:00:16;;;;;;;14.30;13.90;;;;;;;;;;5110745;28;20465;-70
2024/03/29 13:02:43;;;;;;;14.00;13.60;;;;;;;;;;5107153;28;20464;-72
2024/03/29 13:05:14;;;;;;;14.37;13.97;;;;;;;;;;5102100;28;20865;-70
2024/03/29 13:07:44;;;;;;;14.50;14.10;;;;;;;;;;5100228;28;20484;-69
2024/03/29 13:10:19;;;;;;;14.30;13.90;;;;;;;;;;5109929;28;20836;-69
2024/03/29 13:12:49;;;;;;;14.70;14.20;;;;;;;;;;5104815;28;20484;-71
2024/03/29 13:15:17;;;;;;;14.60;14.10;;;;;;;;;;5104834;28;20492;-68
2024/03/29 13:17:45;;;;;;;14.50;14.00;;;;;;;;;;5104779;28;20920;-71
2024/03/29 13:20:23;;;;;;;14.50;14.00;;;;;;;;;;5107084;28;20988;-69
2024/03/29 13:22:51;;;;;;;14.70;14.20;;;;;;;;;;5100567;28;20457;-70
2024/03/29 13:25:19;;;;;;;14.70;14.20;;;;;;;;;;5109874;28;20467;-71
2024/03/29 13:27:47;;;;;;;15.00;14.50;;;;;;;;;;5110034;28;20462;-70
2024/03/29 13:30:15;;;;;;;14.47;13.97;;;;;;;;;;5109519;28;20545;-68
2024/03/29 13:32:44;;;;;;;14.80;14.30;;;;;;;;;;5098208;28;20522;-69
2024/03/29 13:35:14;;;;;;;14.10;13.70;;;;;;;;;;5099838;28;20491;-70
2024/03/29 13:37:45;;;;;;;14.20;13.70;;;;;;;;;;5103240;28;20458;-69
2024/03/29 13:40:13;;;;;;;14.40;13.90;;;;;;;;;;5108861;28;20548;-69
2024/03/29 13:42:41;;;;;;;14.00;13.60;;;;;;;;;;5109797;28;20469;-71
2024/03/29 13:45:10;;;;;;;14.30;13.80;;;;;;;;;;5107406;28;20545;-67
2024/03/29 13:47:46;;;;;;;14.00;13.60;;;;;;;;;;5105944;28;20462;-70
2024/03/29 13:50:19;;;;;;;14.10;13.70;;;;;;;;;;5106961;28;20452;-68
2024/03/29 13:52:48;;;;;;;13.77;13.37;;;;;;;;;;5102066;28;20570;-72
2024/03/29 13:55:15;;;;;;;14.40;13.90;;;;;;;;;;5105032;28;20490;-70
2024/03/29 13:57:43;;;;;;;14.57;14.07;;;;;;;;;;5108845;28;20460;-68
2024/03/29 14:00:14;;;;;;;14.80;14.30;;;;;;;;;;5097538;28;20464;-69
2024/03/29 14:02:42;;;;;;;14.00;13.60;;;;;;;;;;5096515;28;21322;-68
2024/03/29 14:05:10;;;;;;;15.00;14.50;;;;;;;;;;5107233;27;20475;-70
2024/03/29 14:07:38;;;;;;;14.40;13.90;;;;;;;;;;5108518;28;20474;-68
2024/03/29 14:10:07;;;;;;;14.13;13.73;;;;;;;;;;5100059;27;20555;-70
2024/03/29 14:12:40;;;;;;;13.90;13.50;;;;;;;;;;5107553;28;20489;-69
2024/03/29 14:15:08;;;;;;;14.60;14.10;;;;;;;;;;5108577;28;20482;-70
2024/03/29 14:17:35;;;;;;;14.73;14.23;;;;;;;;;;5100450;28;20549;-69
2024/03/29 14:20:04;;;;;;;14.80;14.30;;;;;;;;;;5100015;28;20492;-69
2024/03/29 14:22:34;;;;;;;14.60;14.10;;;;;;;;;;5099148;27;20863;-68
2024/03/29 14:25:02;;;;;;;14.80;14.30;;;;;;;;;;5102193;28;20460;-71
2024/03/29 14:27:31;;;;;;;14.73;14.23;;;;;;;;;;5102556;28;20562;-69
2024/03/29 14:29:59;;;;;;;14.90;14.40;;;;;;;;;;5104544;28;20505;-69
2024/03/29 14:32:26;;;;;;;14.80;14.30;;;;;;;;;;5105066;28;20466;-69
2024/03/29 14:34:53;;;;;;;14.80;14.30;;;;;;;;;;5105229;28;20516;-69
2024/03/29 14:37:21;;;;;;;14.30;13.90;;;;;;;;;;5100807;28;20470;-68
2024/03/29 14:39:48;;;;;;;14.80;14.30;;;;;;;;;;5101958;28;20469;-68
2024/03/29 14:42:21;;;;;;;14.70;14.20;;;;;;;;;;5094674;28;20896;-67
2024/03/29 14:44:50;;;;;;;14.43;13.93;;;;;;;;;;5101134;27;20463;-69
2024/03/29 14:47:17;;;;;;;14.53;14.03;;;;;;;;;;5108902;27;20734;-71
2024/03/29 14:49:45;;;;;;;14.50;14.00;;;;;;;;;;5097540;28;20466;-68
2024/03/29 14:52:12;;;;;;;14.50;14.00;;;;;;;;;;5094871;27;20457;-68
2024/03/29 14:54:40;;;;;;;14.87;14.37;;;;;;;;;;5103828;27;20476;-71
2024/03/29 14:57:09;;;;;;;15.10;14.60;;;;;;;;;;5102202;27;20469;-72
2024/03/29 14:59:36;;;;;;;14.30;13.80;;;;;;;;;;5111504;27;20966;-72
2024/03/29 15:02:08;;;;;;;15.10;14.60;;;;;;;;;;5107988;27;20459;-68
2024/03/29 15:04:35;;;;;;;14.80;14.30;;;;;;;;;;5108788;27;20467;-70
2024/03/29 15:07:03;;;;;;;14.47;13.97;;;;;;;;;;5110152;27;21000;-67
2024/03/29 15:09:36;;;;;;;14.67;14.17;;;;;;;;;;5105266;27;20586;-72
2024/03/29 15:12:08;;;;;;;14.60;14.10;;;;;;;;;;5109915;27;20527;-68
2024/03/29 15:14:38;;;;;;;14.83;14.33;;;;;;;;;;5110459;27;20489;-70
2024/03/29 15:17:11;;;;;;;14.80;14.30;;;;;;;;;;5107479;27;20489;-74
2024/03/29 15:19:52;;;;;;;14.97;14.47;;;;;;;;;;5105591;27;20553;-68
2024/03/29 15:22:22;;;;;;;14.87;14.37;;;;;;;;;;5107328;27;20464;-70
2024/03/29 15:24:49;;;;;;;14.70;14.20;;;;;;;;;;5111042;27;20494;-71
2024/03/29 15:27:26;;;;;;;14.73;14.23;;;;;;;;;;5112314;27;20460;-73
2024/03/29 15:29:56;;;;;;;14.63;14.13;;;;;;;;;;5109253;27;20821;-71
2024/03/29 15:32:30;;;;;;;14.70;14.20;;;;;;;;;;5100661;27;20463;-69
2024/03/29 15:34:57;;;;;;;14.67;14.17;;;;;;;;;;5112183;27;20576;-69
2024/03/29 15:37:27;;;;;;;14.80;14.30;;;;;;;;;;5113771;27;20471;-69
2024/03/29 15:39:57;;;;;;;14.90;14.40;;;;;;;;;;5108907;27;20467;-70
2024/03/29 15:42:24;;;;;;;14.63;14.13;;;;;;;;;;5108669;27;20461;-68
2024/03/29 15:44:56;;;;;;;14.70;14.20;;;;;;;;;;5111845;27;20488;-68
2024/03/29 15:47:27;;;;;;;14.20;13.70;;;;;;;;;;5103326;27;20462;-71
2024/03/29 15:49:58;;;;;;;14.53;14.03;;;;;;;;;;5106354;27;20460;-70
2024/03/29 15:52:25;;;;;;;14.57;14.07;;;;;;;;;;5111724;27;20472;-69
2024/03/29 15:54:55;;;;;;;14.33;13.83;;;;;;;;;;5111416;27;20888;-68
2024/03/29 15:57:23;;;;;;;13.77;13.37;;;;;;;;;;5109154;27;20517;-69
2024/03/29 15:59:53;;;;;;;13.60;13.20;;;;;;;;;;5107780;27;21187;-70
2024/03/29 16:02:26;;;;;;;14.17;13.73;;;;;;;;;;5111866;27;20559;-72
2024/03/29 16:04:56;;;;;;;13.50;13.10;;;;;;;;;;5100600;27;20449;-71
2024/03/29 16:07:25;;;;;;;14.20;13.80;;;;;;;;;;5111455;27;20484;-70
2024/03/29 16:09:53;;;;;;;14.17;13.77;;;;;;;;;;5113593;27;20517;-71
2024/03/29 16:12:21;;;;;;;13.97;13.57;;;;;;;;;;5107756;27;20497;-71
2024/03/29 16:14:50;;;;;;;13.80;13.40;;;;;;;;;;5105545;27;20490;-71